createdAt,value
2022-07-29T00:00:00.861Z,0
2022-07-29T00:00:58.568Z,0
2022-07-29T00:01:58.608Z,0
2022-07-29T00:03:01.865Z,0
2022-07-29T00:03:58.793Z,0
2022-07-29T00:04:58.562Z,0
2022-07-29T00:05:58.619Z,0
2022-07-29T00:06:58.561Z,0
2022-07-29T00:07:58.579Z,0
2022-07-29T00:08:58.594Z,0
2022-07-29T00:09:59.516Z,0
2022-07-29T00:10:58.594Z,0
2022-07-29T00:11:58.578Z,0
2022-07-29T00:12:59.904Z,0
2022-07-29T00:14:01.446Z,0
2022-07-29T00:14:58.594Z,0
2022-07-29T00:15:58.645Z,0
2022-07-29T00:16:58.881Z,0
2022-07-29T00:17:58.586Z,0
2022-07-29T00:19:02.509Z,0
2022-07-29T00:19:58.619Z,0
2022-07-29T00:20:58.672Z,0
2022-07-29T00:21:58.607Z,0
2022-07-29T00:22:58.607Z,0
2022-07-29T00:23:58.621Z,0
2022-07-29T00:24:59.792Z,0
2022-07-29T00:25:58.627Z,0
2022-07-29T00:26:58.625Z,0
2022-07-29T00:27:58.648Z,0
2022-07-29T00:29:37.687Z,0
2022-07-29T00:30:01.733Z,0
2022-07-29T00:30:58.625Z,0
2022-07-29T00:31:58.934Z,0
2022-07-29T00:32:58.615Z,0
2022-07-29T00:33:58.717Z,0
2022-07-29T00:34:58.676Z,0
2022-07-29T00:36:01.762Z,0
2022-07-29T00:36:58.691Z,0
2022-07-29T00:37:58.666Z,0
2022-07-29T00:38:58.677Z,0
2022-07-29T00:39:58.651Z,0
2022-07-29T00:40:59.709Z,0
2022-07-29T00:41:59.194Z,0
2022-07-29T00:42:58.682Z,0
2022-07-29T00:43:58.717Z,0
2022-07-29T00:44:58.663Z,0
2022-07-29T00:45:58.666Z,0
2022-07-29T00:46:59.020Z,0
2022-07-29T00:47:58.658Z,0
2022-07-29T00:48:59.079Z,0
2022-07-29T00:49:58.699Z,0
2022-07-29T00:50:58.645Z,0
2022-07-29T00:51:58.693Z,0
2022-07-29T00:52:58.651Z,0
2022-07-29T00:53:58.689Z,0
2022-07-29T00:54:58.647Z,0
2022-07-29T00:55:59.489Z,0
2022-07-29T00:56:58.666Z,0
2022-07-29T00:57:58.657Z,0
2022-07-29T00:58:58.685Z,0
2022-07-29T00:59:58.678Z,0
2022-07-29T01:00:59.092Z,0
2022-07-29T01:01:59.111Z,0
2022-07-29T01:02:58.677Z,0
2022-07-29T01:03:58.688Z,0
2022-07-29T01:04:58.671Z,0
2022-07-29T01:06:01.691Z,0
2022-07-29T01:06:58.716Z,0
2022-07-29T01:08:01.454Z,0
2022-07-29T01:08:58.739Z,0
2022-07-29T01:09:58.687Z,0
2022-07-29T01:10:59.300Z,0
2022-07-29T01:11:58.688Z,0
2022-07-29T01:13:01.490Z,0
2022-07-29T01:13:58.719Z,0
2022-07-29T01:14:58.691Z,0
2022-07-29T01:15:59.139Z,0
2022-07-29T01:16:58.690Z,0
2022-07-29T01:18:00.596Z,0
2022-07-29T01:19:01.491Z,0
2022-07-29T01:19:58.703Z,0
2022-07-29T01:20:58.697Z,0
2022-07-29T01:21:58.698Z,0
2022-07-29T01:22:58.692Z,0
2022-07-29T01:24:00.646Z,0
2022-07-29T01:24:58.731Z,0
2022-07-29T01:26:03.359Z,0
2022-07-29T01:26:59.472Z,0
2022-07-29T01:27:59.607Z,0
2022-07-29T01:28:59.190Z,0
2022-07-29T01:30:05.136Z,0
2022-07-29T01:31:02.012Z,0
2022-07-29T01:32:06.282Z,0
2022-07-29T01:32:58.728Z,0
2022-07-29T01:33:58.777Z,0
2022-07-29T01:35:01.554Z,0
2022-07-29T01:35:58.729Z,0
2022-07-29T01:36:58.732Z,0
2022-07-29T01:37:58.727Z,0
2022-07-29T01:38:58.741Z,0
2022-07-29T01:39:58.734Z,0
2022-07-29T01:40:59.843Z,0
2022-07-29T01:41:58.751Z,0
2022-07-29T01:42:58.756Z,0
2022-07-29T01:43:58.765Z,0
2022-07-29T01:44:58.747Z,0
2022-07-29T01:45:59.019Z,0
2022-07-29T01:46:59.239Z,0
2022-07-29T01:47:58.752Z,0
2022-07-29T01:48:59.145Z,0
2022-07-29T01:49:58.776Z,0
2022-07-29T01:50:58.750Z,0
2022-07-29T01:52:01.539Z,0
2022-07-29T01:52:58.765Z,0
2022-07-29T01:53:58.782Z,0
2022-07-29T01:54:58.771Z,0
2022-07-29T01:56:03.468Z,0
2022-07-29T01:57:01.588Z,0
2022-07-29T01:57:58.773Z,0
2022-07-29T01:59:00.257Z,0
2022-07-29T01:59:58.973Z,0
2022-07-29T02:00:58.785Z,0
2022-07-29T02:02:01.805Z,0
2022-07-29T02:03:01.556Z,0
2022-07-29T02:03:58.809Z,0
2022-07-29T02:04:59.089Z,0
2022-07-29T02:05:58.788Z,0
2022-07-29T02:06:58.810Z,0
2022-07-29T02:08:01.801Z,0
2022-07-29T02:08:59.059Z,0
2022-07-29T02:09:58.794Z,0
2022-07-29T02:10:58.806Z,0
2022-07-29T02:11:58.795Z,0
2022-07-29T02:12:58.804Z,0
2022-07-29T02:14:01.977Z,0
2022-07-29T02:14:58.793Z,0
2022-07-29T02:15:59.117Z,0
2022-07-29T02:16:58.820Z,0
2022-07-29T02:17:58.807Z,0
2022-07-29T02:19:01.922Z,0
2022-07-29T02:19:59.743Z,0
2022-07-29T02:20:58.798Z,0
2022-07-29T02:21:58.830Z,0
2022-07-29T02:22:58.816Z,0
2022-07-29T02:23:58.825Z,0
2022-07-29T02:24:58.825Z,0
2022-07-29T02:25:58.948Z,0
2022-07-29T02:26:58.822Z,0
2022-07-29T02:27:58.818Z,0
2022-07-29T02:28:58.824Z,0
2022-07-29T02:30:01.882Z,0
2022-07-29T02:30:59.318Z,0
2022-07-29T02:31:58.880Z,0
2022-07-29T02:32:58.835Z,0
2022-07-29T02:33:58.830Z,0
2022-07-29T02:34:58.833Z,0
2022-07-29T02:35:58.828Z,0
2022-07-29T02:36:58.824Z,0
2022-07-29T02:37:58.837Z,0
2022-07-29T02:38:58.909Z,0
2022-07-29T02:39:58.844Z,0
2022-07-29T02:41:01.626Z,0
2022-07-29T02:41:58.858Z,0
2022-07-29T02:42:58.875Z,0
2022-07-29T02:43:58.878Z,0
2022-07-29T02:44:59.575Z,0
2022-07-29T02:45:59.199Z,0
2022-07-29T02:46:59.303Z,0
2022-07-29T02:47:58.858Z,0
2022-07-29T02:48:59.129Z,0
2022-07-29T02:49:58.870Z,0
2022-07-29T02:50:58.880Z,0
2022-07-29T02:52:02.169Z,0
2022-07-29T02:53:01.799Z,0
2022-07-29T02:53:58.869Z,0
2022-07-29T02:54:58.874Z,0
2022-07-29T02:55:58.904Z,0
2022-07-29T02:57:01.645Z,0
2022-07-29T02:58:02.069Z,0
2022-07-29T02:58:58.901Z,0
2022-07-29T02:59:58.883Z,0
2022-07-29T03:00:58.909Z,0
2022-07-29T03:01:59.326Z,0
2022-07-29T03:02:58.908Z,0
2022-07-29T03:03:58.562Z,0
2022-07-29T03:05:00.509Z,0
2022-07-29T03:05:58.962Z,0
2022-07-29T03:06:58.896Z,0
2022-07-29T03:07:59.971Z,0
2022-07-29T03:08:59.230Z,0
2022-07-29T03:09:58.898Z,0
2022-07-29T03:10:58.940Z,0
2022-07-29T03:11:58.906Z,0
2022-07-29T03:12:59.065Z,0
2022-07-29T03:13:58.902Z,0
2022-07-29T03:14:58.943Z,0
2022-07-29T03:15:59.233Z,0
2022-07-29T03:16:58.927Z,0
2022-07-29T03:17:58.944Z,0
2022-07-29T03:18:58.772Z,0
2022-07-29T03:19:58.972Z,0
2022-07-29T03:20:58.923Z,0
2022-07-29T03:21:58.919Z,0
2022-07-29T03:22:58.919Z,0
2022-07-29T03:23:58.934Z,0
2022-07-29T03:24:58.949Z,0
2022-07-29T03:25:59.374Z,0
2022-07-29T03:26:58.980Z,0
2022-07-29T03:27:58.961Z,0
2022-07-29T03:28:59.549Z,4
2022-07-29T03:30:04.092Z,4
2022-07-29T03:30:59.861Z,0
2022-07-29T03:31:58.994Z,0
2022-07-29T03:33:01.260Z,0
2022-07-29T03:33:58.958Z,4
2022-07-29T03:35:02.099Z,4
2022-07-29T03:35:58.938Z,4
2022-07-29T03:36:58.966Z,0
2022-07-29T03:37:58.988Z,4
2022-07-29T03:38:58.957Z,4
2022-07-29T03:40:00.307Z,4
2022-07-29T03:40:58.986Z,4
2022-07-29T03:41:59.026Z,4
2022-07-29T03:42:58.992Z,8
2022-07-29T03:43:58.979Z,4
2022-07-29T03:44:59.288Z,8
2022-07-29T03:46:02.384Z,4
2022-07-29T03:46:59.092Z,8
2022-07-29T03:48:05.633Z,8
2022-07-29T03:48:59.462Z,8
2022-07-29T03:49:59.058Z,8
2022-07-29T03:51:00.251Z,12
2022-07-29T03:51:58.981Z,8
2022-07-29T03:52:58.999Z,12
2022-07-29T03:54:01.519Z,8
2022-07-29T03:54:59.022Z,12
2022-07-29T03:55:59.008Z,12
2022-07-29T03:57:01.809Z,12
2022-07-29T03:57:58.995Z,12
2022-07-29T03:58:58.996Z,16
2022-07-29T03:59:59.015Z,16
2022-07-29T04:00:58.999Z,16
2022-07-29T04:02:02.707Z,16
2022-07-29T04:02:59.191Z,16
2022-07-29T04:04:02.379Z,20
2022-07-29T04:04:59.029Z,20
2022-07-29T04:05:59.001Z,20
2022-07-29T04:07:01.740Z,24
2022-07-29T04:08:04.838Z,24
2022-07-29T04:08:58.997Z,24
2022-07-29T04:09:59.040Z,28
2022-07-29T04:10:59.025Z,24
2022-07-29T04:12:10.095Z,28
2022-07-29T04:13:01.826Z,28
2022-07-29T04:13:59.025Z,32
2022-07-29T04:14:59.051Z,36
2022-07-29T04:15:59.357Z,36
2022-07-29T04:16:59.014Z,36
2022-07-29T04:17:59.047Z,36
2022-07-29T04:19:01.841Z,36
2022-07-29T04:19:59.043Z,40
2022-07-29T04:20:59.026Z,40
2022-07-29T04:21:59.057Z,44
2022-07-29T04:22:59.037Z,44
2022-07-29T04:24:02.532Z,48
2022-07-29T04:25:08.797Z,48
2022-07-29T04:25:59.038Z,52
2022-07-29T04:26:59.035Z,52
2022-07-29T04:27:59.037Z,56
2022-07-29T04:28:59.063Z,56
2022-07-29T04:30:06.095Z,60
2022-07-29T04:30:59.328Z,64
2022-07-29T04:31:59.076Z,64
2022-07-29T04:32:59.054Z,68
2022-07-29T04:33:59.053Z,72
2022-07-29T04:35:01.935Z,76
2022-07-29T04:36:01.335Z,76
2022-07-29T04:36:59.055Z,80
2022-07-29T04:37:59.062Z,84
2022-07-29T04:38:59.219Z,84
2022-07-29T04:39:59.064Z,88
2022-07-29T04:41:03.829Z,88
2022-07-29T04:42:01.683Z,92
2022-07-29T04:43:08.314Z,96
2022-07-29T04:43:59.783Z,100
2022-07-29T04:44:59.082Z,100
2022-07-29T04:46:02.495Z,100
2022-07-29T04:46:59.076Z,100
2022-07-29T04:47:59.078Z,104
2022-07-29T04:48:59.444Z,112
2022-07-29T04:49:59.077Z,112
2022-07-29T04:50:59.113Z,112
2022-07-29T04:51:59.120Z,120
2022-07-29T04:52:59.095Z,120
2022-07-29T04:53:59.078Z,124
2022-07-29T04:54:59.085Z,132
2022-07-29T04:55:59.131Z,136
2022-07-29T04:57:02.131Z,144
2022-07-29T04:57:59.145Z,148
2022-07-29T04:58:59.096Z,156
2022-07-29T04:59:59.097Z,152
2022-07-29T05:00:59.138Z,160
2022-07-29T05:01:59.578Z,172
2022-07-29T05:03:04.467Z,192
2022-07-29T05:04:05.807Z,196
2022-07-29T05:04:59.114Z,200
2022-07-29T05:05:59.143Z,208
2022-07-29T05:07:00.140Z,216
2022-07-29T05:08:02.203Z,216
2022-07-29T05:08:59.121Z,220
2022-07-29T05:09:59.143Z,220
2022-07-29T05:10:59.154Z,200
2022-07-29T05:11:59.115Z,184
2022-07-29T05:12:59.241Z,180
2022-07-29T05:13:59.123Z,180
2022-07-29T05:14:59.249Z,176
2022-07-29T05:15:59.472Z,176
2022-07-29T05:16:59.114Z,176
2022-07-29T05:17:59.127Z,176
2022-07-29T05:19:00.271Z,180
2022-07-29T05:19:59.162Z,188
2022-07-29T05:20:59.237Z,220
2022-07-29T05:21:59.207Z,264
2022-07-29T05:22:59.136Z,232
2022-07-29T05:24:02.015Z,256
2022-07-29T05:24:59.159Z,216
2022-07-29T05:25:59.410Z,192
2022-07-29T05:26:59.617Z,188
2022-07-29T05:27:59.154Z,188
2022-07-29T05:28:59.189Z,188
2022-07-29T05:29:59.148Z,188
2022-07-29T05:30:59.411Z,188
2022-07-29T05:31:59.152Z,192
2022-07-29T05:32:59.169Z,196
2022-07-29T05:33:59.189Z,204
2022-07-29T05:35:01.994Z,212
2022-07-29T05:36:05.161Z,220
2022-07-29T05:37:02.185Z,220
2022-07-29T05:37:59.168Z,220
2022-07-29T05:38:59.229Z,220
2022-07-29T05:40:04.826Z,224
2022-07-29T05:40:59.202Z,228
2022-07-29T05:41:59.167Z,232
2022-07-29T05:42:59.198Z,240
2022-07-29T05:43:59.194Z,248
2022-07-29T05:44:59.348Z,256
2022-07-29T05:45:59.584Z,276
2022-07-29T05:46:59.174Z,304
2022-07-29T05:47:59.260Z,352
2022-07-29T05:48:59.546Z,388
2022-07-29T05:49:59.193Z,392
2022-07-29T05:50:59.203Z,404
2022-07-29T05:51:59.247Z,408
2022-07-29T05:52:59.191Z,416
2022-07-29T05:53:59.218Z,428
2022-07-29T05:54:59.188Z,428
2022-07-29T05:55:59.277Z,432
2022-07-29T05:56:59.197Z,444
2022-07-29T05:57:59.198Z,452
2022-07-29T05:58:59.200Z,444
2022-07-29T05:59:59.201Z,468
2022-07-29T06:00:59.247Z,476
2022-07-29T06:02:02.291Z,484
2022-07-29T06:02:59.219Z,488
2022-07-29T06:03:59.448Z,496
2022-07-29T06:04:59.637Z,500
2022-07-29T06:05:59.270Z,504
2022-07-29T06:07:02.009Z,512
2022-07-29T06:07:59.219Z,516
2022-07-29T06:08:59.225Z,524
2022-07-29T06:09:59.259Z,532
2022-07-29T06:10:59.277Z,536
2022-07-29T06:11:59.222Z,540
2022-07-29T06:13:02.296Z,548
2022-07-29T06:13:59.276Z,552
2022-07-29T06:15:01.188Z,556
2022-07-29T06:15:59.545Z,564
2022-07-29T06:16:59.411Z,576
2022-07-29T06:18:08.105Z,588
2022-07-29T06:18:59.260Z,588
2022-07-29T06:19:59.244Z,596
2022-07-29T06:20:59.287Z,612
2022-07-29T06:21:59.255Z,652
2022-07-29T06:22:59.310Z,712
2022-07-29T06:24:02.089Z,792
2022-07-29T06:24:59.288Z,1108
2022-07-29T06:25:59.269Z,1380
2022-07-29T06:26:59.260Z,1488
2022-07-29T06:27:59.263Z,1608
2022-07-29T06:29:02.341Z,1780
2022-07-29T06:29:59.264Z,1888
2022-07-29T06:30:59.683Z,2004
2022-07-29T06:31:59.257Z,2188
2022-07-29T06:32:59.317Z,2428
2022-07-29T06:34:01.568Z,2712
2022-07-29T06:35:44.710Z,2828
2022-07-29T06:36:02.505Z,2860
2022-07-29T06:37:01.893Z,2860
2022-07-29T06:38:30.575Z,2828
2022-07-29T06:39:01.495Z,2740
2022-07-29T06:40:06.375Z,2604
2022-07-29T06:41:00.575Z,2472
2022-07-29T06:42:00.577Z,2388
2022-07-29T06:43:00.567Z,2416
2022-07-29T06:44:02.018Z,2448
2022-07-29T06:45:00.591Z,2452
2022-07-29T06:46:04.159Z,2384
2022-07-29T06:47:00.602Z,2336
2022-07-29T06:48:00.566Z,2304
2022-07-29T06:49:00.929Z,2344
2022-07-29T06:50:00.593Z,2284
2022-07-29T06:51:03.364Z,2292
2022-07-29T06:52:00.579Z,1580
2022-07-29T06:53:00.583Z,2080
2022-07-29T06:54:09.404Z,2012
2022-07-29T06:55:00.620Z,2008
2022-07-29T06:56:00.589Z,1716
2022-07-29T06:57:03.463Z,1924
2022-07-29T06:58:00.590Z,1532
2022-07-29T06:59:01.368Z,1444
2022-07-29T07:00:00.435Z,1612
2022-07-29T07:01:00.839Z,1364
2022-07-29T07:02:03.960Z,1648
2022-07-29T07:03:00.867Z,1652
2022-07-29T07:04:00.599Z,1676
2022-07-29T07:05:00.597Z,1968
2022-07-29T07:06:02.430Z,2052
2022-07-29T07:07:00.612Z,2064
2022-07-29T07:08:03.443Z,1688
2022-07-29T07:09:00.606Z,2028
2022-07-29T07:10:00.609Z,1704
2022-07-29T07:11:00.612Z,2080
2022-07-29T07:12:00.635Z,1556
2022-07-29T07:13:03.447Z,1592
2022-07-29T07:14:09.720Z,1328
2022-07-29T07:15:00.636Z,1964
2022-07-29T07:16:00.626Z,1740
2022-07-29T07:17:01.887Z,1740
2022-07-29T07:18:00.621Z,1736
2022-07-29T07:19:03.907Z,1848
2022-07-29T07:20:00.631Z,1900
2022-07-29T07:21:00.672Z,2320
2022-07-29T07:22:03.775Z,2356
2022-07-29T07:23:00.702Z,2340
2022-07-29T07:24:03.988Z,2288
2022-07-29T07:25:00.641Z,2424
2022-07-29T07:26:00.638Z,2496
2022-07-29T07:27:00.666Z,2324
2022-07-29T07:28:00.701Z,2356
2022-07-29T07:29:00.669Z,2524
2022-07-29T07:30:03.670Z,2584
2022-07-29T07:31:00.644Z,2340
2022-07-29T07:32:06.256Z,2316
2022-07-29T07:33:00.670Z,2296
2022-07-29T07:34:00.650Z,1636
2022-07-29T07:35:03.646Z,1280
2022-07-29T07:36:00.681Z,1428
2022-07-29T07:37:00.692Z,1516
2022-07-29T07:38:01.474Z,1500
2022-07-29T07:39:00.671Z,1160
2022-07-29T07:40:00.675Z,1060
2022-07-29T07:41:03.756Z,1084
2022-07-29T07:42:00.703Z,944
2022-07-29T07:43:00.699Z,840
2022-07-29T07:44:00.680Z,1244
2022-07-29T07:45:21.071Z,952
2022-07-29T07:46:04.014Z,692
2022-07-29T07:47:14.749Z,936
2022-07-29T07:48:00.692Z,2016
2022-07-29T07:49:01.145Z,1936
2022-07-29T07:50:00.700Z,1024
2022-07-29T07:51:01.698Z,964
2022-07-29T07:52:00.708Z,1000
2022-07-29T07:53:00.850Z,1604
2022-07-29T07:54:02.777Z,1272
2022-07-29T07:55:00.701Z,1344
2022-07-29T07:56:17.566Z,1064
2022-07-29T07:57:00.732Z,992
2022-07-29T07:58:00.729Z,824
2022-07-29T07:59:00.859Z,1144
2022-07-29T08:00:00.718Z,1396
2022-07-29T08:01:01.134Z,2344
2022-07-29T08:02:03.464Z,1104
2022-07-29T08:03:00.795Z,1396
2022-07-29T08:04:00.723Z,2672
2022-07-29T08:05:00.709Z,1900
2022-07-29T08:06:00.724Z,1236
2022-07-29T08:07:00.754Z,1192
2022-07-29T08:08:00.742Z,1188
2022-07-29T08:09:32.646Z,1388
2022-07-29T08:10:00.903Z,1236
2022-07-29T08:11:03.174Z,1384
2022-07-29T08:12:00.778Z,2444
2022-07-29T08:13:03.809Z,3104
2022-07-29T08:14:00.728Z,2016
2022-07-29T08:15:00.730Z,2108
2022-07-29T08:16:01.455Z,1488
2022-07-29T08:17:01.212Z,1800
2022-07-29T08:18:03.152Z,1932
2022-07-29T08:19:00.974Z,1652
2022-07-29T08:20:00.763Z,1872
2022-07-29T08:21:00.746Z,1264
2022-07-29T08:22:01.229Z,1444
2022-07-29T08:23:00.970Z,1980
2022-07-29T08:24:11.945Z,1388
2022-07-29T08:25:02.434Z,1604
2022-07-29T08:26:01.873Z,1492
2022-07-29T08:27:00.811Z,1148
2022-07-29T08:28:00.803Z,1572
2022-07-29T08:29:03.594Z,2044
2022-07-29T08:30:00.761Z,2084
2022-07-29T08:31:00.756Z,2072
2022-07-29T08:32:03.268Z,2152
2022-07-29T08:33:02.466Z,2148
2022-07-29T08:34:01.096Z,2232
2022-07-29T08:35:00.769Z,2200
2022-07-29T08:36:00.793Z,2252
2022-07-29T08:37:00.836Z,2284
2022-07-29T08:38:00.889Z,2244
2022-07-29T08:39:00.791Z,2228
2022-07-29T08:40:03.848Z,2192
2022-07-29T08:41:00.792Z,2168
2022-07-29T08:42:04.716Z,2140
2022-07-29T08:43:00.804Z,2112
2022-07-29T08:44:00.823Z,2100
2022-07-29T08:45:00.804Z,1948
2022-07-29T08:46:01.038Z,1564
2022-07-29T08:47:01.939Z,2016
2022-07-29T08:48:00.647Z,1944
2022-07-29T08:49:01.167Z,1512
2022-07-29T08:50:00.666Z,1132
2022-07-29T08:51:04.746Z,1392
2022-07-29T08:52:02.041Z,1196
2022-07-29T08:53:06.410Z,1276
2022-07-29T08:54:00.810Z,1452
2022-07-29T08:55:03.843Z,1568
2022-07-29T08:56:03.855Z,1624
2022-07-29T08:57:03.167Z,1552
2022-07-29T08:58:04.684Z,1804
2022-07-29T08:59:01.739Z,1708
2022-07-29T09:00:06.300Z,1648
2022-07-29T09:01:02.461Z,1224
2022-07-29T09:02:05.601Z,1424
2022-07-29T09:03:00.825Z,1480
2022-07-29T09:04:01.434Z,1432
2022-07-29T09:05:00.824Z,1336
2022-07-29T09:06:00.823Z,1392
2022-07-29T09:07:02.664Z,968
2022-07-29T09:08:00.671Z,768
2022-07-29T09:09:00.851Z,732
2022-07-29T09:10:02.707Z,680
2022-07-29T09:11:03.856Z,692
2022-07-29T09:12:01.968Z,768
2022-07-29T09:13:03.662Z,908
2022-07-29T09:14:00.853Z,1312
2022-07-29T09:15:00.907Z,1480
2022-07-29T09:16:03.488Z,1428
2022-07-29T09:17:03.591Z,988
2022-07-29T09:18:03.747Z,924
2022-07-29T09:19:00.846Z,872
2022-07-29T09:20:00.699Z,796
2022-07-29T09:21:00.862Z,800
2022-07-29T09:22:01.190Z,796
2022-07-29T09:23:00.865Z,772
2022-07-29T09:24:04.092Z,808
2022-07-29T09:25:00.880Z,872
2022-07-29T09:26:00.868Z,928
2022-07-29T09:27:01.604Z,960
2022-07-29T09:28:00.883Z,1000
2022-07-29T09:29:04.059Z,1100
2022-07-29T09:30:01.368Z,1144
2022-07-29T09:31:00.887Z,1108
2022-07-29T09:32:01.391Z,1288
2022-07-29T09:33:00.907Z,1196
2022-07-29T09:34:00.883Z,1360
2022-07-29T09:35:08.035Z,1336
2022-07-29T09:36:04.224Z,1084
2022-07-29T09:37:02.157Z,1028
2022-07-29T09:38:00.932Z,932
2022-07-29T09:39:00.897Z,800
2022-07-29T09:40:03.921Z,748
2022-07-29T09:41:10.424Z,716
2022-07-29T09:42:00.928Z,696
2022-07-29T09:43:00.950Z,732
2022-07-29T09:44:00.947Z,756
2022-07-29T09:45:00.750Z,764
2022-07-29T09:46:03.775Z,736
2022-07-29T09:47:02.228Z,736
2022-07-29T09:48:01.027Z,748
2022-07-29T09:49:01.228Z,788
2022-07-29T09:50:01.182Z,824
2022-07-29T09:51:03.767Z,844
2022-07-29T09:52:00.922Z,1072
2022-07-29T09:53:00.971Z,1068
2022-07-29T09:54:00.941Z,1076
2022-07-29T09:55:00.935Z,1288
2022-07-29T09:56:00.918Z,772
2022-07-29T09:57:04.770Z,712
2022-07-29T09:58:00.929Z,700
2022-07-29T09:59:00.987Z,656
2022-07-29T10:00:00.940Z,632
2022-07-29T10:01:01.358Z,624
2022-07-29T10:02:04.539Z,624
2022-07-29T10:03:01.244Z,612
2022-07-29T10:04:00.953Z,608
2022-07-29T10:05:00.950Z,620
2022-07-29T10:06:00.940Z,640
2022-07-29T10:07:08.357Z,672
2022-07-29T10:08:07.116Z,692
2022-07-29T10:09:01.296Z,688
2022-07-29T10:10:00.983Z,760
2022-07-29T10:11:01.014Z,804
2022-07-29T10:12:01.583Z,784
2022-07-29T10:13:15.617Z,788
2022-07-29T10:14:00.957Z,732
2022-07-29T10:15:00.968Z,728
2022-07-29T10:16:01.221Z,1116
2022-07-29T10:17:01.005Z,1028
2022-07-29T10:18:01.021Z,848
2022-07-29T10:19:00.825Z,848
2022-07-29T10:20:00.983Z,880
2022-07-29T10:21:00.978Z,1136
2022-07-29T10:22:05.907Z,924
2022-07-29T10:23:01.421Z,948
2022-07-29T10:24:14.592Z,872
2022-07-29T10:25:00.997Z,860
2022-07-29T10:26:01.006Z,864
2022-07-29T10:27:00.992Z,860
2022-07-29T10:28:01.044Z,848
2022-07-29T10:29:01.049Z,828
2022-07-29T10:30:01.052Z,796
2022-07-29T10:31:01.175Z,780
2022-07-29T10:32:01.763Z,752
2022-07-29T10:33:01.327Z,864
2022-07-29T10:34:03.465Z,756
2022-07-29T10:35:01.015Z,788
2022-07-29T10:36:01.013Z,1588
2022-07-29T10:37:02.274Z,1396
2022-07-29T10:38:03.512Z,868
2022-07-29T10:39:03.231Z,832
2022-07-29T10:40:04.517Z,832
2022-07-29T10:41:04.430Z,840
2022-07-29T10:42:03.524Z,1448
2022-07-29T10:43:03.350Z,1408
2022-07-29T10:44:01.475Z,1192
2022-07-29T10:45:01.998Z,1284
2022-07-29T10:46:02.247Z,1564
2022-07-29T10:47:04.007Z,1564
2022-07-29T10:48:01.286Z,1484
2022-07-29T10:49:03.628Z,1540
2022-07-29T10:50:05.622Z,1600
2022-07-29T10:51:06.938Z,1596
2022-07-29T10:52:03.443Z,1464
2022-07-29T10:53:01.084Z,1516
2022-07-29T10:54:02.436Z,1540
2022-07-29T10:55:01.219Z,1496
2022-07-29T10:56:09.407Z,1348
2022-07-29T10:57:01.197Z,1232
2022-07-29T10:58:02.433Z,928
2022-07-29T10:59:02.066Z,1244
2022-07-29T11:00:01.878Z,1524
2022-07-29T11:01:06.235Z,1544
2022-07-29T11:02:44.616Z,1440
2022-07-29T11:03:04.492Z,1332
2022-07-29T11:08:25.348Z,1292
2022-07-29T11:09:19.926Z,1172
2022-07-29T11:10:09.862Z,1220
2022-07-29T11:11:11.084Z,1216
2022-07-29T11:12:11.549Z,1044
2022-07-29T11:13:14.323Z,632
2022-07-29T11:14:17.526Z,596
2022-07-29T11:15:10.743Z,588
2022-07-29T11:16:10.810Z,596
2022-07-29T11:17:16.167Z,616
2022-07-29T11:18:19.512Z,636
2022-07-29T11:19:15.520Z,648
2022-07-29T11:20:17.330Z,660
2022-07-29T11:21:10.972Z,668
2022-07-29T11:22:11.958Z,692
2022-07-29T11:23:09.926Z,732
2022-07-29T11:24:18.701Z,832
2022-07-29T11:25:19.151Z,1156
2022-07-29T11:26:12.793Z,1312
2022-07-29T11:27:13.466Z,1332
2022-07-29T11:28:10.634Z,1096
2022-07-29T11:29:10.882Z,992
2022-07-29T11:30:13.352Z,984
2022-07-29T11:31:10.447Z,1132
2022-07-29T11:32:18.477Z,1308
2022-07-29T11:33:15.072Z,1256
2022-07-29T11:34:12.529Z,1184
2022-07-29T11:35:42.254Z,1060
2022-07-29T11:36:30.607Z,1076
2022-07-29T11:37:10.900Z,1188
2022-07-29T11:38:13.487Z,1364
2022-07-29T11:39:17.454Z,1396
2022-07-29T11:40:13.498Z,1356
2022-07-29T11:41:12.429Z,1524
2022-07-29T11:42:32.696Z,1336
2022-07-29T12:07:09.920Z,1380
2022-07-29T12:07:41.242Z,1388
2022-07-29T12:08:25.500Z,1328
2022-07-29T12:09:30.896Z,1380
2022-07-29T12:10:35.762Z,1064
2022-07-29T12:11:28.243Z,1124
2022-07-29T12:12:28.987Z,1008
2022-07-29T12:13:40.262Z,1272
2022-07-29T12:14:29.867Z,1312
2022-07-29T12:15:45.801Z,1284
2022-07-29T12:16:35.028Z,1292
2022-07-29T12:17:32.699Z,1216
2022-07-29T12:18:28.769Z,1192
2022-07-29T12:19:25.533Z,1208
2022-07-29T12:20:30.384Z,1292
2022-07-29T12:21:31.343Z,1236
2022-07-29T12:22:29.862Z,1284
2022-07-29T12:23:34.222Z,1332
2022-07-29T12:24:31.712Z,1316
2022-07-29T12:25:40.105Z,1264
2022-07-29T12:26:35.891Z,1280
2022-07-29T12:27:33.906Z,1156
2022-07-29T12:28:37.202Z,1312
2022-07-29T12:29:39.023Z,1308
2022-07-29T12:30:27.049Z,1260
2022-07-29T12:31:50.500Z,1244
2022-07-29T12:32:27.131Z,1208
2022-07-29T12:33:25.374Z,1196
2022-07-29T12:34:25.370Z,1216
2022-07-29T12:35:25.383Z,980
2022-07-29T12:36:28.268Z,988
2022-07-29T12:37:45.575Z,1096
2022-07-29T12:38:25.381Z,988
2022-07-29T12:39:25.364Z,920
2022-07-29T12:40:25.388Z,796
2022-07-29T12:41:28.351Z,752
2022-07-29T12:42:27.989Z,684
2022-07-29T12:43:25.220Z,776
2022-07-29T12:44:25.387Z,844
2022-07-29T12:45:25.402Z,1144
2022-07-29T12:46:25.789Z,1240
2022-07-29T12:47:28.534Z,944
2022-07-29T12:48:25.386Z,1276
2022-07-29T12:49:25.534Z,1312
2022-07-29T12:50:31.093Z,1320
2022-07-29T12:51:25.404Z,1324
2022-07-29T12:52:27.035Z,1436
2022-07-29T12:53:25.409Z,1564
2022-07-29T12:54:27.636Z,1640
2022-07-29T12:55:25.416Z,1648
2022-07-29T12:56:49.949Z,732
2022-07-29T12:57:27.244Z,824
2022-07-29T12:58:28.875Z,1000
2022-07-29T12:59:25.490Z,1632
2022-07-29T13:00:25.515Z,1332
2022-07-29T13:01:25.912Z,1492
2022-07-29T13:02:25.713Z,1532
2022-07-29T13:03:29.676Z,1364
2022-07-29T13:04:25.434Z,1208
2022-07-29T13:05:26.076Z,1212
2022-07-29T13:06:25.443Z,1120
2022-07-29T13:07:59.798Z,1172
2022-07-29T13:08:30.368Z,948
2022-07-29T13:09:29.119Z,872
2022-07-29T13:10:31.057Z,1192
2022-07-29T13:11:25.449Z,1240
2022-07-29T13:12:25.444Z,1320
2022-07-29T13:13:25.494Z,1408
2022-07-29T13:14:28.552Z,1380
2022-07-29T13:15:25.477Z,1352
2022-07-29T13:16:27.496Z,644
2022-07-29T13:17:25.493Z,632
2022-07-29T13:18:28.916Z,648
2022-07-29T13:19:25.456Z,788
2022-07-29T13:20:28.615Z,1232
2022-07-29T13:21:25.856Z,1284
2022-07-29T13:22:26.014Z,1012
2022-07-29T13:23:25.511Z,632
2022-07-29T13:24:26.829Z,608
2022-07-29T13:25:28.608Z,556
2022-07-29T13:26:25.473Z,528
2022-07-29T13:27:25.480Z,504
2022-07-29T13:28:25.492Z,484
2022-07-29T13:29:32.084Z,460
2022-07-29T13:30:25.653Z,436
2022-07-29T13:31:28.657Z,408
2022-07-29T13:32:34.653Z,368
2022-07-29T13:33:25.542Z,352
2022-07-29T13:34:25.496Z,332
2022-07-29T13:35:25.481Z,320
2022-07-29T13:36:26.415Z,300
2022-07-29T13:37:25.505Z,288
2022-07-29T13:38:33.271Z,276
2022-07-29T13:39:25.532Z,272
2022-07-29T13:40:25.546Z,264
2022-07-29T13:41:28.215Z,256
2022-07-29T13:42:25.512Z,252
2022-07-29T13:43:25.528Z,244
2022-07-29T13:44:25.533Z,240
2022-07-29T13:45:25.532Z,232
2022-07-29T13:46:26.019Z,224
2022-07-29T13:47:37.675Z,208
2022-07-29T13:48:25.544Z,204
2022-07-29T13:49:25.994Z,192
2022-07-29T13:50:25.820Z,176
2022-07-29T13:51:25.530Z,164
2022-07-29T13:52:26.195Z,148
2022-07-29T13:53:36.588Z,132
2022-07-29T13:54:25.521Z,128
2022-07-29T13:55:25.374Z,116
2022-07-29T13:56:25.986Z,112
2022-07-29T13:57:25.530Z,116
2022-07-29T13:58:28.547Z,116
2022-07-29T13:59:25.527Z,116
2022-07-29T14:00:25.690Z,112
2022-07-29T14:01:25.912Z,112
2022-07-29T14:02:28.308Z,116
2022-07-29T14:03:25.577Z,112
2022-07-29T14:04:25.901Z,116
2022-07-29T14:05:25.563Z,116
2022-07-29T14:06:32.178Z,124
2022-07-29T14:07:25.552Z,124
2022-07-29T14:08:26.275Z,128
2022-07-29T14:09:28.628Z,136
2022-07-29T14:10:27.159Z,140
2022-07-29T14:11:25.579Z,148
2022-07-29T14:12:25.573Z,160
2022-07-29T14:13:34.444Z,160
2022-07-29T14:14:25.569Z,160
2022-07-29T14:15:25.574Z,156
2022-07-29T14:16:25.906Z,156
2022-07-29T14:17:25.887Z,148
2022-07-29T14:18:25.619Z,144
2022-07-29T14:19:26.124Z,144
2022-07-29T14:20:25.570Z,148
2022-07-29T14:21:27.438Z,152